Time;durP1;ratioP1;P1;durP2;ratioP2;P2;SDS_P1;SDS_P2;PMS_P1;PMS_P2;Temp;Humidity;BMP_temperature;BMP_pressure;BME280_temperature;BME280_humidity;BME280_pressure;Samples;Min_cycle;Max_cycle;Signal;HPM_P1;HPM_P2
2023/07/05 00:01:03;;;;;;;12.90;9.63;;;;;;;14.47;100.00;96650.91;4993774;28;20452;-63
2023/07/05 00:03:31;;;;;;;11.37;10.27;;;;;;;14.43;100.00;96644.41;4998943;28;20695;-63
2023/07/05 00:06:03;;;;;;;10.50;9.53;;;;;;;14.43;100.00;96643.59;4993571;28;20205;-63
2023/07/05 00:08:32;;;;;;;11.03;10.00;;;;;;;14.38;100.00;96638.09;5003572;28;20262;-65
2023/07/05 00:11:04;;;;;;;10.93;9.83;;;;;;;14.36;100.00;96632.19;4992652;28;20234;-63
2023/07/05 00:13:31;;;;;;;10.60;9.47;;;;;;;14.33;100.00;96638.78;4996076;28;20300;-63
2023/07/05 00:16:01;;;;;;;11.63;10.53;;;;;;;14.32;100.00;96627.28;5000915;28;20227;-64
2023/07/05 00:18:29;;;;;;;11.17;9.50;;;;;;;14.27;100.00;96624.47;4999454;28;20219;-64
2023/07/05 00:20:59;;;;;;;10.40;9.40;;;;;;;14.25;100.00;96625.75;4997504;28;20236;-63
2023/07/05 00:23:27;;;;;;;10.77;9.83;;;;;;;14.27;100.00;96619.16;4995477;28;20205;-64
2023/07/05 00:25:55;;;;;;;10.47;9.47;;;;;;;14.27;100.00;96613.81;4990805;28;20291;-63
2023/07/05 00:28:23;;;;;;;10.67;9.57;;;;;;;14.27;100.00;96610.38;5001857;28;20197;-62
2023/07/05 00:30:50;;;;;;;10.57;9.47;;;;;;;14.19;100.00;96611.47;5001787;28;20256;-63
2023/07/05 00:33:19;;;;;;;11.13;10.07;;;;;;;14.16;100.00;96606.56;5001378;28;20621;-62
2023/07/05 00:35:48;;;;;;;10.57;9.57;;;;;;;14.11;100.00;96606.44;4991683;28;20224;-64
2023/07/05 00:38:16;;;;;;;12.43;9.47;;;;;;;14.07;100.00;96598.06;4997005;28;20208;-63
2023/07/05 00:40:43;;;;;;;11.37;9.97;;;;;;;14.04;100.00;96601.16;4996338;28;20298;-62
2023/07/05 00:43:12;;;;;;;11.33;10.33;;;;;;;14.01;100.00;96596.28;4993219;28;20263;-62
2023/07/05 00:46:01;;;;;;;10.63;9.17;;;;;;;13.96;100.00;96599.59;4998655;28;20244;-64
2023/07/05 00:48:34;;;;;;;10.93;9.83;;;;;;;13.94;100.00;96593.66;4992709;28;20322;-63
2023/07/05 00:51:04;;;;;;;12.33;10.73;;;;;;;13.94;100.00;96600.84;4998842;28;20663;-64
2023/07/05 00:53:35;;;;;;;10.60;9.50;;;;;;;13.91;100.00;96588.78;4990128;28;20664;-64
2023/07/05 00:56:06;;;;;;;11.20;10.20;;;;;;;13.83;100.00;96586.41;4992473;28;20333;-64
2023/07/05 00:58:34;;;;;;;11.03;9.87;;;;;;;13.77;100.00;96587.28;4997216;28;20228;-63
2023/07/05 01:01:01;;;;;;;12.83;11.53;;;;;;;13.79;100.00;96585.22;5000090;28;20453;-63
2023/07/05 01:03:32;;;;;;;12.27;11.00;;;;;;;13.81;100.00;96577.81;5000287;28;20209;-62
2023/07/05 01:06:00;;;;;;;11.00;9.93;;;;;;;13.73;100.00;96576.25;4992239;28;20648;-64
2023/07/05 01:08:27;;;;;;;11.17;10.10;;;;;;;13.78;100.00;96579.06;4996106;28;20270;-62
2023/07/05 01:11:02;;;;;;;11.47;10.27;;;;;;;13.76;100.00;96583.81;4993680;28;20655;-63
2023/07/05 01:13:32;;;;;;;10.97;9.97;;;;;;;13.82;100.00;96579.47;4999265;28;20213;-63
2023/07/05 01:16:10;;;;;;;10.97;9.87;;;;;;;13.85;100.00;96573.69;4999533;28;20219;-64
2023/07/05 01:18:44;;;;;;;11.07;10.07;;;;;;;13.89;100.00;96581.03;5001389;28;20216;-63
2023/07/05 01:21:17;;;;;;;11.13;10.13;;;;;;;13.86;100.00;96581.47;4991651;28;20356;-62
2023/07/05 01:24:00;;;;;;;10.80;9.80;;;;;;;13.85;100.00;96579.00;4990119;28;20296;-62
2023/07/05 01:26:38;;;;;;;10.43;8.53;;;;;;;13.78;100.00;96581.72;4996258;28;20204;-62
2023/07/05 01:29:24;;;;;;;11.20;9.77;;;;;;;13.77;100.00;96584.63;4993329;28;20228;-63
2023/07/05 01:31:56;;;;;;;10.23;9.13;;;;;;;13.75;100.00;96580.34;5000409;28;20667;-63
2023/07/05 01:34:34;;;;;;;10.70;9.67;;;;;;;13.64;100.00;96585.56;4997710;28;20289;-64
2023/07/05 01:37:05;;;;;;;10.30;9.40;;;;;;;13.64;100.00;96589.06;4994856;28;20267;-63
2023/07/05 01:39:33;;;;;;;10.57;9.57;;;;;;;13.70;100.00;96588.16;4997406;28;20228;-63
2023/07/05 01:42:02;;;;;;;10.40;9.23;;;;;;;13.68;100.00;96592.06;4989249;28;20290;-63
2023/07/05 01:44:30;;;;;;;10.07;9.17;;;;;;;13.50;100.00;96595.50;4998718;28;20259;-63
2023/07/05 01:47:04;;;;;;;11.07;9.97;;;;;;;13.52;100.00;96590.78;5000744;28;20232;-63
2023/07/05 01:49:46;;;;;;;10.47;9.47;;;;;;;13.51;100.00;96600.63;4996720;28;20296;-63
2023/07/05 01:52:22;;;;;;;10.67;9.47;;;;;;;13.48;100.00;96593.06;4998334;28;20283;-63
2023/07/05 01:54:59;;;;;;;10.73;9.63;;;;;;;13.34;100.00;96594.97;4993968;28;20642;-63
2023/07/05 01:57:29;;;;;;;10.13;9.13;;;;;;;13.44;100.00;96597.16;4990030;28;20200;-63
2023/07/05 02:00:00;;;;;;;9.93;8.97;;;;;;;13.50;100.00;96600.81;5000412;28;20197;-63
2023/07/05 02:02:31;;;;;;;12.43;9.70;;;;;;;13.49;100.00;96593.88;5000404;28;20287;-63
2023/07/05 02:05:01;;;;;;;10.47;9.43;;;;;;;13.41;100.00;96601.06;4993577;28;20205;-63
2023/07/05 02:07:29;;;;;;;10.73;9.07;;;;;;;13.55;100.00;96582.34;4997296;28;20241;-63
2023/07/05 02:09:57;;;;;;;9.93;8.63;;;;;;;13.66;100.00;96584.31;4992635;28;20218;-63
2023/07/05 02:12:26;;;;;;;8.37;7.57;;;;;;;13.77;100.00;96579.31;4989126;28;20268;-62
2023/07/05 02:14:54;;;;;;;10.03;8.47;;;;;;;13.81;100.00;96581.28;4997000;28;20271;-63
2023/07/05 02:17:23;;;;;;;9.07;8.10;;;;;;;13.91;100.00;96580.00;4996936;28;20264;-64
2023/07/05 02:19:52;;;;;;;7.97;7.33;;;;;;;13.83;100.00;96603.22;4996776;28;20197;-63
2023/07/05 02:22:20;;;;;;;9.70;8.13;;;;;;;13.99;100.00;96624.97;4990078;28;20228;-63
2023/07/05 02:24:51;;;;;;;8.70;8.00;;;;;;;13.99;100.00;96619.66;4997431;28;20204;-63
2023/07/05 02:27:19;;;;;;;10.53;8.57;;;;;;;13.99;100.00;96617.00;4993295;28;20340;-63
2023/07/05 02:29:47;;;;;;;8.17;7.37;;;;;;;14.01;100.00;96628.25;4994145;28;20742;-64
2023/07/05 02:32:15;;;;;;;8.50;7.70;;;;;;;14.07;100.00;96619.38;5000286;28;20240;-63
2023/07/05 02:34:43;;;;;;;9.13;7.83;;;;;;;14.09;100.00;96616.50;4999989;28;20724;-62
2023/07/05 02:37:12;;;;;;;8.37;7.30;;;;;;;14.13;100.00;96615.81;4989238;28;20249;-64
2023/07/05 02:39:40;;;;;;;8.87;7.97;;;;;;;14.10;100.00;96605.59;4990898;28;20362;-64
2023/07/05 02:42:08;;;;;;;7.67;7.00;;;;;;;14.13;100.00;96602.50;4994058;28;20228;-63
2023/07/05 02:44:36;;;;;;;8.53;7.73;;;;;;;14.01;100.00;96593.63;4996129;28;20210;-63
2023/07/05 02:47:08;;;;;;;9.37;8.20;;;;;;;13.95;100.00;96599.81;4993963;28;20201;-63
2023/07/05 02:49:35;;;;;;;8.13;7.40;;;;;;;13.96;100.00;96590.81;4997743;28;20213;-63
2023/07/05 02:52:04;;;;;;;7.87;7.07;;;;;;;13.90;100.00;96587.16;4987772;28;20285;-60
2023/07/05 02:54:32;;;;;;;7.60;7.00;;;;;;;13.97;100.00;96581.78;4999687;28;20287;-62
2023/07/05 02:57:01;;;;;;;6.77;6.07;;;;;;;14.05;100.00;96568.16;4991971;28;20204;-62
2023/07/05 02:59:28;;;;;;;6.13;5.60;;;;;;;14.10;100.00;96557.66;4994539;28;20259;-62
2023/07/05 03:01:56;;;;;;;6.20;5.57;;;;;;;14.22;100.00;96554.28;4997274;28;20213;-63
2023/07/05 03:04:24;;;;;;;6.10;5.47;;;;;;;14.25;100.00;96548.50;4997846;28;20208;-64
2023/07/05 03:06:51;;;;;;;6.17;5.67;;;;;;;14.23;100.00;96540.72;4998319;28;20213;-63
2023/07/05 03:09:19;;;;;;;6.13;5.17;;;;;;;14.30;100.00;96548.63;4999364;28;20205;-64
2023/07/05 03:11:48;;;;;;;5.80;5.30;;;;;;;14.37;100.00;96538.69;4990604;28;20322;-62
2023/07/05 03:14:16;;;;;;;5.63;5.13;;;;;;;14.40;100.00;96534.78;4995361;28;20209;-63
2023/07/05 03:16:43;;;;;;;5.47;4.87;;;;;;;14.41;100.00;96534.53;4999331;28;20201;-63
2023/07/05 03:19:12;;;;;;;5.33;4.83;;;;;;;14.46;100.00;96529.34;4993229;28;20337;-64
2023/07/05 03:21:39;;;;;;;4.40;4.10;;;;;;;14.44;100.00;96526.09;4991575;28;20232;-62
2023/07/05 03:24:07;;;;;;;5.77;5.17;;;;;;;14.48;100.00;96529.94;4997612;28;20471;-62
2023/07/05 03:26:34;;;;;;;5.70;3.90;;;;;;;14.53;100.00;96525.78;4989097;28;20296;-63
2023/07/05 03:29:04;;;;;;;4.73;4.33;;;;;;;14.62;100.00;96529.78;4993805;28;20850;-62
2023/07/05 03:31:32;;;;;;;3.87;3.57;;;;;;;14.68;100.00;96528.88;4996985;28;20229;-63
2023/07/05 03:33:59;;;;;;;6.27;3.93;;;;;;;14.68;100.00;96525.38;4990564;28;20947;-63
2023/07/05 03:36:27;;;;;;;3.80;3.50;;;;;;;14.66;100.00;96524.78;4996415;28;20209;-63
2023/07/05 03:38:54;;;;;;;4.53;4.17;;;;;;;14.67;100.00;96529.91;4993691;28;20213;-63
2023/07/05 03:41:24;;;;;;;3.60;3.30;;;;;;;14.69;100.00;96525.16;4991044;28;21304;-62
2023/07/05 03:43:54;;;;;;;3.27;2.97;;;;;;;14.70;100.00;96524.16;4991970;28;20207;-63
2023/07/05 03:46:23;;;;;;;4.20;3.87;;;;;;;14.71;100.00;96524.94;4997877;28;20201;-61
2023/07/05 03:48:51;;;;;;;4.30;4.00;;;;;;;14.71;100.00;96533.78;4993149;28;20240;-63
2023/07/05 03:51:21;;;;;;;3.27;3.07;;;;;;;14.73;100.00;96530.88;4985382;28;20232;-62
2023/07/05 03:53:50;;;;;;;3.60;3.20;;;;;;;14.65;100.00;96542.66;4992490;28;20228;-64
2023/07/05 03:56:18;;;;;;;6.30;3.93;;;;;;;14.52;100.00;96537.47;4987710;28;20215;-65
2023/07/05 03:58:46;;;;;;;4.80;4.40;;;;;;;14.56;100.00;96530.66;4993443;28;20727;-64
2023/07/05 04:01:17;;;;;;;4.53;4.20;;;;;;;14.61;100.00;96525.50;4993638;28;20232;-64
2023/07/05 04:03:48;;;;;;;4.20;3.90;;;;;;;14.64;100.00;96519.72;4995280;28;20236;-63
2023/07/05 04:06:16;;;;;;;5.30;3.90;;;;;;;14.61;100.00;96528.94;4986138;28;20240;-63
2023/07/05 04:08:44;;;;;;;5.80;4.73;;;;;;;14.57;100.00;96527.78;4995676;28;20306;-63
2023/07/05 04:11:12;;;;;;;5.27;4.77;;;;;;;14.55;100.00;96535.19;4984787;28;20382;-64
2023/07/05 04:13:39;;;;;;;5.13;4.23;;;;;;;14.51;100.00;96530.53;4992148;28;20310;-63
2023/07/05 04:16:10;;;;;;;4.63;4.33;;;;;;;14.54;100.00;96527.41;4992874;28;20206;-63
2023/07/05 04:18:39;;;;;;;4.47;4.17;;;;;;;14.61;100.00;96528.16;4996454;28;20232;-63
2023/07/05 04:21:08;;;;;;;3.97;3.67;;;;;;;14.72;100.00;96522.06;4992539;28;20302;-64
2023/07/05 04:23:36;;;;;;;4.50;4.10;;;;;;;14.81;100.00;96524.41;4993721;28;20276;-63
2023/07/05 04:26:07;;;;;;;4.40;3.97;;;;;;;14.87;100.00;96534.16;4991293;28;20271;-63
2023/07/05 04:28:36;;;;;;;4.37;3.97;;;;;;;14.90;100.00;96536.38;4995834;28;20213;-64
2023/07/05 04:31:03;;;;;;;7.43;3.90;;;;;;;14.89;100.00;96534.75;4998168;28;20279;-63
2023/07/05 04:33:31;;;;;;;7.03;3.60;;;;;;;15.01;100.00;96532.13;4994561;28;20608;-63
2023/07/05 04:36:00;;;;;;;6.30;3.60;;;;;;;15.16;100.00;96527.19;4995393;28;20562;-63
2023/07/05 04:38:30;;;;;;;3.70;3.43;;;;;;;15.25;100.00;96524.19;4996190;28;20209;-63
2023/07/05 04:40:59;;;;;;;3.90;3.60;;;;;;;15.29;100.00;96534.16;4992771;28;20224;-63
2023/07/05 04:43:27;;;;;;;4.00;3.70;;;;;;;15.47;100.00;96521.75;4989326;28;20205;-63
2023/07/05 04:45:56;;;;;;;4.40;3.80;;;;;;;15.76;100.00;96530.69;4997074;28;20224;-64
2023/07/05 04:48:25;;;;;;;4.17;3.67;;;;;;;16.04;100.00;96542.53;4995123;28;20201;-63
2023/07/05 04:50:54;;;;;;;3.70;3.50;;;;;;;16.23;100.00;96552.28;4994609;28;20742;-64
2023/07/05 04:53:23;;;;;;;4.23;3.83;;;;;;;16.49;100.00;96551.75;4993561;28;20235;-63
2023/07/05 04:55:54;;;;;;;3.43;3.13;;;;;;;16.70;100.00;96548.66;4996678;28;20776;-63
2023/07/05 04:58:22;;;;;;;3.43;3.20;;;;;;;16.83;100.00;96550.19;4991956;28;20213;-63
2023/07/05 05:00:50;;;;;;;3.53;3.33;;;;;;;16.90;100.00;96559.72;5004437;28;20208;-64
2023/07/05 05:03:19;;;;;;;3.57;3.30;;;;;;;16.98;100.00;96561.22;5000264;28;20193;-63
2023/07/05 05:05:54;;;;;;;3.73;3.43;;;;;;;17.24;100.00;96561.69;5000319;28;20572;-63
2023/07/05 05:08:22;;;;;;;2.87;2.67;;;;;;;17.39;100.00;96565.66;4992483;28;20608;-65
2023/07/05 05:10:52;;;;;;;3.03;2.83;;;;;;;17.58;100.00;96568.91;4998337;28;20856;-63
2023/07/05 05:13:22;;;;;;;2.90;2.70;;;;;;;17.64;100.00;96575.94;4996232;28;20220;-63
2023/07/05 05:15:50;;;;;;;3.00;2.80;;;;;;;17.83;100.00;96573.03;5000707;28;20204;-63
2023/07/05 05:18:18;;;;;;;3.40;3.20;;;;;;;17.86;100.00;96580.56;4998322;28;20868;-62
2023/07/05 05:20:46;;;;;;;2.90;2.70;;;;;;;18.04;100.00;96588.34;4995980;28;20236;-64
2023/07/05 05:23:14;;;;;;;2.40;2.30;;;;;;;18.19;100.00;96585.06;4998688;28;20201;-63
2023/07/05 05:25:43;;;;;;;3.03;2.83;;;;;;;18.13;100.00;96593.28;4994460;28;20608;-63
2023/07/05 05:28:12;;;;;;;3.53;3.23;;;;;;;18.39;100.00;96594.47;4993602;28;20209;-64
2023/07/05 05:30:43;;;;;;;6.37;2.90;;;;;;;18.86;100.00;96603.06;5001551;28;20213;-63
2023/07/05 05:33:12;;;;;;;4.63;3.00;;;;;;;19.16;100.00;96607.94;4993129;28;20274;-65
2023/07/05 05:35:40;;;;;;;3.27;3.03;;;;;;;19.14;100.00;96612.78;4996360;28;20295;-65
2023/07/05 05:38:08;;;;;;;2.97;2.77;;;;;;;19.63;100.00;96614.56;5001730;28;20220;-63
2023/07/05 05:40:36;;;;;;;5.40;2.63;;;;;;;20.02;100.00;96618.09;4996888;28;20316;-64
2023/07/05 05:43:03;;;;;;;6.23;3.13;;;;;;;20.03;100.00;96615.13;4993776;28;20209;-63
2023/07/05 05:45:32;;;;;;;4.97;2.93;;;;;;;20.67;100.00;96617.91;5000149;28;20303;-63
2023/07/05 05:48:00;;;;;;;4.47;3.13;;;;;;;20.80;100.00;96622.81;4999200;28;20252;-64
2023/07/05 05:50:28;;;;;;;4.07;2.63;;;;;;;20.96;100.00;96634.47;4999405;28;20679;-64
2023/07/05 05:52:55;;;;;;;3.27;2.67;;;;;;;20.92;100.00;96638.75;4992094;28;20271;-64
2023/07/05 05:55:23;;;;;;;3.20;2.90;;;;;;;20.77;100.00;96638.66;4991433;28;20616;-64
2023/07/05 05:57:50;;;;;;;4.27;3.13;;;;;;;20.91;100.00;96637.13;4996754;28;20283;-64
2023/07/05 06:00:18;;;;;;;3.33;3.03;;;;;;;21.01;100.00;96657.88;4994338;28;20225;-64
2023/07/05 06:02:47;;;;;;;4.50;2.67;;;;;;;20.82;100.00;96644.91;4996501;28;20264;-61
2023/07/05 06:05:17;;;;;;;2.93;2.70;;;;;;;20.33;100.00;96677.47;4996591;28;20205;-64
2023/07/05 06:07:44;;;;;;;2.80;2.60;;;;;;;20.25;100.00;96673.38;4995312;28;20768;-63
2023/07/05 06:10:12;;;;;;;3.40;2.80;;;;;;;19.84;100.00;96686.47;4992564;28;20233;-62
2023/07/05 06:12:41;;;;;;;3.10;2.90;;;;;;;19.88;100.00;96695.66;4991527;28;20850;-63
2023/07/05 06:15:11;;;;;;;2.90;2.70;;;;;;;19.80;100.00;96697.75;4997719;28;20545;-63
2023/07/05 06:17:39;;;;;;;3.13;2.63;;;;;;;19.69;100.00;96690.63;5002203;28;20225;-63
2023/07/05 06:20:10;;;;;;;3.37;2.23;;;;;;;19.88;100.00;96696.44;4999090;28;20604;-64
2023/07/05 06:22:39;;;;;;;2.20;2.10;;;;;;;20.30;100.00;96705.69;4991954;28;20224;-63
2023/07/05 06:25:10;;;;;;;2.30;2.20;;;;;;;20.90;100.00;96710.91;4994878;28;20641;-62
2023/07/05 06:27:37;;;;;;;2.87;2.50;;;;;;;21.23;100.00;96718.84;4996068;28;20241;-63
2023/07/05 06:30:06;;;;;;;2.93;2.73;;;;;;;21.73;100.00;96715.75;5001361;28;20239;-64
2023/07/05 06:32:34;;;;;;;2.27;2.17;;;;;;;22.16;100.00;96719.03;4999826;28;20229;-64
2023/07/05 06:35:03;;;;;;;2.47;2.27;;;;;;;22.11;100.00;96713.59;4994435;28;20229;-64
2023/07/05 06:37:32;;;;;;;2.83;2.63;;;;;;;21.44;100.00;96717.00;4994508;28;20205;-64
2023/07/05 06:39:59;;;;;;;2.87;2.63;;;;;;;21.27;100.00;96725.31;4988948;28;21492;-63
2023/07/05 06:42:27;;;;;;;2.33;2.17;;;;;;;20.91;100.00;96723.28;4993184;28;20732;-63
2023/07/05 06:44:56;;;;;;;2.60;2.37;;;;;;;20.76;100.00;96726.69;4999095;28;20228;-64
2023/07/05 06:47:24;;;;;;;2.63;2.43;;;;;;;20.67;100.00;96728.25;4998462;28;20279;-63
2023/07/05 06:49:52;;;;;;;2.80;2.60;;;;;;;20.08;100.00;96740.75;4991257;28;20209;-63
2023/07/05 06:52:19;;;;;;;2.87;2.67;;;;;;;19.77;100.00;96741.25;4994472;28;20229;-63
2023/07/05 06:54:49;;;;;;;4.17;3.00;;;;;;;19.45;100.00;96746.56;4992186;28;20291;-63
2023/07/05 06:57:17;;;;;;;3.37;2.50;;;;;;;19.02;100.00;96746.34;4993331;28;20219;-63
2023/07/05 06:59:45;;;;;;;2.77;2.63;;;;;;;18.78;100.00;96744.66;4996108;28;20541;-63
2023/07/05 07:02:12;;;;;;;2.77;2.30;;;;;;;18.50;100.00;96754.47;4996870;28;20283;-62
2023/07/05 07:04:40;;;;;;;3.17;2.87;;;;;;;18.21;100.00;96749.19;4998464;28;20291;-62
2023/07/05 07:07:08;;;;;;;2.60;2.43;;;;;;;18.17;100.00;96755.28;4989409;28;20219;-63
2023/07/05 07:09:36;;;;;;;2.90;2.63;;;;;;;18.11;100.00;96757.06;4991335;28;20224;-64
2023/07/05 07:12:07;;;;;;;2.93;2.67;;;;;;;17.87;100.00;96754.50;4991738;28;20237;-64
2023/07/05 07:14:35;;;;;;;3.23;2.93;;;;;;;17.53;100.00;96751.75;4993347;28;20231;-62
2023/07/05 07:17:03;;;;;;;5.00;3.37;;;;;;;17.26;100.00;96762.19;4995966;28;20836;-63
2023/07/05 07:19:31;;;;;;;3.73;3.43;;;;;;;17.10;100.00;96763.75;4991580;28;20677;-63
2023/07/05 07:21:59;;;;;;;4.33;3.50;;;;;;;17.16;100.00;96755.59;4992014;28;20911;-62
2023/07/05 07:24:28;;;;;;;6.57;3.60;;;;;;;17.08;100.00;96758.66;4994387;28;20421;-63
2023/07/05 07:26:56;;;;;;;3.83;3.53;;;;;;;17.05;100.00;96759.91;4991874;28;20210;-64
2023/07/05 07:29:25;;;;;;;5.17;3.70;;;;;;;17.06;100.00;96748.16;4994551;28;20209;-63
2023/07/05 07:31:53;;;;;;;5.63;3.80;;;;;;;17.01;100.00;96733.84;4997591;28;20228;-64
2023/07/05 07:34:20;;;;;;;4.90;3.27;;;;;;;16.76;100.00;96716.22;4997002;28;20224;-62
2023/07/05 07:36:48;;;;;;;3.47;3.17;;;;;;;16.74;100.00;96705.72;4987428;28;22220;-64
2023/07/05 07:39:16;;;;;;;4.60;4.00;;;;;;;16.59;100.00;96689.38;4993777;28;20216;-64
2023/07/05 07:41:43;;;;;;;4.43;3.37;;;;;;;16.83;100.00;96668.72;4992013;28;20904;-63
2023/07/05 07:44:11;;;;;;;3.53;3.33;;;;;;;17.05;100.00;96671.59;4995214;28;20647;-64
2023/07/05 07:46:40;;;;;;;3.40;3.20;;;;;;;17.45;100.00;96669.94;4996058;28;20236;-64
2023/07/05 07:49:10;;;;;;;5.80;2.80;;;;;;;18.09;100.00;96638.56;4997279;28;20751;-64
2023/07/05 07:51:39;;;;;;;4.90;3.10;;;;;;;18.20;100.00;96650.25;4994797;28;20221;-64
2023/07/05 07:54:08;;;;;;;3.03;2.83;;;;;;;18.26;100.00;96651.13;4990967;28;20216;-63
2023/07/05 07:56:36;;;;;;;2.97;2.77;;;;;;;19.24;100.00;96673.84;4987805;28;20209;-64
2023/07/05 07:59:06;;;;;;;3.03;2.83;;;;;;;19.46;100.00;96678.34;4993430;28;20205;-63
2023/07/05 08:01:37;;;;;;;2.60;2.40;;;;;;;19.77;100.00;96681.31;4994506;28;20609;-64
2023/07/05 08:04:08;;;;;;;2.53;2.43;;;;;;;19.92;100.00;96678.78;4996990;28;20254;-63
2023/07/05 08:06:38;;;;;;;4.80;2.50;;;;;;;20.05;100.00;96674.03;4993007;28;20209;-63
2023/07/05 08:09:07;;;;;;;2.43;2.27;;;;;;;20.50;100.00;96672.72;4988765;28;20205;-64
2023/07/05 08:11:36;;;;;;;2.40;2.20;;;;;;;20.61;100.00;96670.91;4989528;28;20236;-64
2023/07/05 08:14:04;;;;;;;2.50;2.10;;;;;;;20.98;100.00;96681.84;4997435;28;20213;-64
2023/07/05 08:16:32;;;;;;;2.20;2.10;;;;;;;21.11;100.00;96673.28;4996554;28;20271;-64
2023/07/05 08:19:00;;;;;;;3.60;2.40;;;;;;;21.14;100.00;96671.94;4995632;28;20205;-64
2023/07/05 08:21:29;;;;;;;2.57;2.20;;;;;;;20.73;100.00;96676.06;4991694;28;20271;-64
2023/07/05 08:23:57;;;;;;;2.00;1.90;;;;;;;20.05;100.00;96680.22;4991059;28;20300;-63
2023/07/05 08:26:36;;;;;;;3.53;2.13;;;;;;;19.75;100.00;96673.50;4986057;28;20295;-63
2023/07/05 08:29:03;;;;;;;3.87;2.37;;;;;;;19.41;100.00;96679.09;4999202;28;20232;-63
2023/07/05 08:31:31;;;;;;;2.37;2.27;;;;;;;19.62;100.00;96684.66;5002061;28;20245;-64
2023/07/05 08:33:59;;;;;;;2.10;2.00;;;;;;;19.49;100.00;96680.50;4999114;28;20644;-64
2023/07/05 08:36:33;;;;;;;2.63;2.23;;;;;;;19.40;100.00;96682.03;4995433;28;20225;-63
2023/07/05 08:39:01;;;;;;;2.80;1.77;;;;;;;19.57;100.00;96685.44;4995065;28;20567;-63
2023/07/05 08:41:38;;;;;;;2.50;2.10;;;;;;;20.09;100.00;96675.97;4991867;28;20239;-63
2023/07/05 08:44:12;;;;;;;2.43;2.00;;;;;;;20.30;100.00;96681.47;4994376;28;20301;-63
2023/07/05 08:46:41;;;;;;;2.80;2.03;;;;;;;20.15;100.00;96662.56;4998891;28;20437;-63
2023/07/05 08:49:13;;;;;;;2.13;2.03;;;;;;;20.54;100.00;96676.50;4995840;28;20697;-63
2023/07/05 08:51:43;;;;;;;2.17;2.07;;;;;;;20.67;100.00;96669.84;4989761;28;20229;-63
2023/07/05 08:54:13;;;;;;;2.47;1.83;;;;;;;20.51;100.00;96666.25;5000027;28;20198;-64
2023/07/05 08:56:44;;;;;;;2.60;2.00;;;;;;;21.18;100.00;96662.25;4994646;28;20244;-63
2023/07/05 08:59:21;;;;;;;2.27;2.17;;;;;;;21.59;100.00;96667.72;4993855;28;20305;-64
2023/07/05 09:01:50;;;;;;;2.27;1.70;;;;;;;21.47;100.00;96664.47;5002427;28;20221;-63
2023/07/05 09:04:22;;;;;;;2.03;1.93;;;;;;;21.32;100.00;96662.56;4997714;28;20201;-64
2023/07/05 09:06:54;;;;;;;2.17;1.63;;;;;;;21.31;100.00;96664.44;4996216;28;20201;-63
2023/07/05 09:09:32;;;;;;;1.97;1.87;;;;;;;21.23;100.00;96670.34;4998834;28;20201;-62
2023/07/05 09:12:08;;;;;;;1.93;1.83;;;;;;;20.77;100.00;96665.56;4992729;28;20251;-64
2023/07/05 09:14:45;;;;;;;3.30;1.67;;;;;;;20.74;100.00;96668.78;4995312;28;20271;-64
2023/07/05 09:17:19;;;;;;;1.80;1.50;;;;;;;20.58;100.00;96668.72;4996704;28;20570;-64
2023/07/05 09:19:51;;;;;;;4.03;1.93;;;;;;;20.78;100.00;96670.72;4997259;28;20208;-63
2023/07/05 09:22:24;;;;;;;3.63;1.90;;;;;;;20.94;100.00;96665.41;4995686;28;20225;-64
2023/07/05 09:24:52;;;;;;;2.10;1.80;;;;;;;21.05;100.00;96669.78;4991675;28;20210;-63
2023/07/05 09:27:22;;;;;;;2.20;1.57;;;;;;;21.44;100.00;96667.72;4996691;28;20224;-63
2023/07/05 09:29:54;;;;;;;1.83;1.70;;;;;;;21.50;100.00;96653.97;5001040;28;20352;-63
2023/07/05 09:32:26;;;;;;;2.80;1.80;;;;;;;21.71;100.00;96661.28;4995452;28;20220;-64
2023/07/05 09:34:58;;;;;;;1.77;1.67;;;;;;;21.90;100.00;96667.78;4999145;28;20202;-64
2023/07/05 09:37:31;;;;;;;1.57;1.47;;;;;;;22.21;100.00;96665.06;4993053;28;20771;-64
2023/07/05 09:40:06;;;;;;;0.97;0.97;;;;;;;22.69;100.00;96661.97;4995346;28;20272;-64
2023/07/05 09:42:38;;;;;;;2.43;0.90;;;;;;;22.99;100.00;96656.75;4996424;28;20794;-64
2023/07/05 09:45:08;;;;;;;1.50;1.37;;;;;;;23.02;100.00;96658.91;4992467;28;20217;-63
2023/07/05 09:47:36;;;;;;;1.60;1.40;;;;;;;23.31;100.00;96652.84;4999855;28;20244;-64
2023/07/05 09:50:13;;;;;;;1.63;1.53;;;;;;;23.40;100.00;96640.34;4996794;28;20553;-64
2023/07/05 09:52:43;;;;;;;1.40;1.30;;;;;;;23.39;100.00;96641.44;4993669;28;20717;-64
2023/07/05 09:55:13;;;;;;;1.97;1.87;;;;;;;23.84;100.00;96638.63;4996155;28;20240;-63
2023/07/05 09:57:42;;;;;;;1.70;1.60;;;;;;;23.76;100.00;96633.84;4994137;28;20713;-63
2023/07/05 10:00:25;;;;;;;1.80;1.70;;;;;;;23.89;100.00;96626.97;4994751;28;20221;-64
2023/07/05 10:02:54;;;;;;;2.77;1.60;;;;;;;23.82;100.00;96631.91;4999217;28;20228;-64
2023/07/05 10:05:27;;;;;;;1.67;1.57;;;;;;;23.47;100.00;96639.22;4996124;28;20208;-63
2023/07/05 10:07:57;;;;;;;1.50;1.40;;;;;;;23.43;100.00;96636.25;4993763;28;20680;-63
2023/07/05 10:10:27;;;;;;;1.60;1.50;;;;;;;23.70;100.00;96616.88;4995811;28;20197;-63
2023/07/05 10:13:11;;;;;;;1.57;1.47;;;;;;;24.45;100.00;96621.31;4994817;28;20228;-63
2023/07/05 10:15:42;;;;;;;1.63;1.60;;;;;;;25.13;95.19;96622.94;4999047;28;20264;-64
2023/07/05 10:18:25;;;;;;;1.40;1.40;;;;;;;25.88;86.95;96616.94;4998714;28;20412;-63
2023/07/05 10:20:53;;;;;;;1.80;1.40;;;;;;;25.96;78.26;96624.44;4995648;28;20208;-63
2023/07/05 10:23:22;;;;;;;3.57;1.63;;;;;;;25.66;85.03;96625.72;4994178;28;20680;-64
2023/07/05 10:25:51;;;;;;;1.23;1.17;;;;;;;25.10;86.88;96625.44;4990889;28;20247;-63
2023/07/05 10:28:26;;;;;;;2.53;1.60;;;;;;;24.36;87.35;96649.03;4998632;28;20196;-63
2023/07/05 10:30:55;;;;;;;1.77;1.63;;;;;;;23.23;97.91;96691.19;4999945;28;20204;-63
2023/07/05 10:33:24;;;;;;;2.53;2.13;;;;;;;22.11;80.59;96705.50;5000440;28;20200;-64
2023/07/05 10:35:59;;;;;;;2.30;1.67;;;;;;;21.10;85.10;96675.16;4990335;28;20739;-63
2023/07/05 10:38:29;;;;;;;3.20;1.70;;;;;;;20.35;88.84;96688.78;4997086;28;20892;-64
2023/07/05 10:41:00;;;;;;;1.63;1.53;;;;;;;19.42;100.00;96704.91;4996128;28;20251;-63
2023/07/05 10:43:30;;;;;;;4.33;1.93;;;;;;;18.48;100.00;96748.53;4992337;28;20209;-65
2023/07/05 10:45:59;;;;;;;10.83;3.10;;;;;;;16.49;100.00;96772.84;4999502;28;20691;-66
2023/07/05 10:48:35;;;;;;;5.97;2.63;;;;;;;15.76;100.00;96789.75;4991764;28;20679;-68
2023/07/05 10:51:03;;;;;;;9.53;2.73;;;;;;;15.33;100.00;96791.53;4988214;28;20311;-68
2023/07/05 10:53:33;;;;;;;9.20;2.83;;;;;;;15.01;100.00;96807.72;4996973;28;20232;-66
2023/07/05 10:56:03;;;;;;;2.33;2.13;;;;;;;14.86;100.00;96809.91;4995323;28;20864;-66
2023/07/05 10:58:38;;;;;;;1.90;1.80;;;;;;;14.62;100.00;96831.84;4989460;28;20282;-65
2023/07/05 11:01:13;;;;;;;2.03;1.83;;;;;;;14.40;100.00;96844.75;4996529;28;20716;-68
2023/07/05 11:03:44;;;;;;;2.03;1.83;;;;;;;14.38;100.00;96845.97;4994675;28;20206;-68
2023/07/05 11:06:12;;;;;;;1.83;1.70;;;;;;;14.32;100.00;96864.47;4991832;28;20288;-68
2023/07/05 11:08:42;;;;;;;1.90;1.63;;;;;;;14.15;100.00;96882.00;4993871;28;20204;-67
2023/07/05 11:11:15;;;;;;;1.90;1.67;;;;;;;14.30;100.00;96876.38;4994471;28;20225;-66
2023/07/05 11:13:43;;;;;;;3.73;1.90;;;;;;;14.39;100.00;96877.75;4989417;28;20208;-67
2023/07/05 11:16:16;;;;;;;2.17;1.60;;;;;;;14.39;100.00;96858.25;4997490;28;20667;-66
2023/07/05 11:18:44;;;;;;;1.93;1.83;;;;;;;14.53;100.00;96840.31;4998013;28;20197;-67
2023/07/05 11:21:37;;;;;;;1.80;1.70;;;;;;;14.65;100.00;96811.09;4990214;28;20363;-67
2023/07/05 11:24:07;;;;;;;1.97;1.67;;;;;;;14.64;100.00;96804.97;4998410;28;20294;-67
2023/07/05 11:26:37;;;;;;;2.60;1.87;;;;;;;14.93;100.00;96807.97;4988565;28;20264;-67
2023/07/05 11:29:41;;;;;;;1.93;1.80;;;;;;;15.58;100.00;96819.97;4990312;28;20279;-66
2023/07/05 11:32:09;;;;;;;2.00;1.90;;;;;;;16.07;100.00;96813.78;4993726;28;20314;-67
2023/07/05 11:34:43;;;;;;;2.60;2.00;;;;;;;16.47;100.00;96817.72;4995553;28;20213;-67
2023/07/05 11:37:43;;;;;;;1.80;1.70;;;;;;;16.50;100.00;96811.91;4993097;28;20228;-66